»·PEaware :: N123KT KSNA-KSAN

N123KT :: KSNA-KSAN

FLIGHT INFORMATION

Flight Status: Arrived
Operator: Privately registered:
United States
More flights under this callsign
Pilot: Anonymous 475 (475)
Aircraft: CESSNA 172 SKYHAWK
(C172)
More flights by this aircraft type
Origin: KSNA John Wayne-Orange Co
United States
Destination: KSAN San Diego Intl-Lindbergh
United States
More flights between these airports :: More routes between these airports
Route: +V23 MZB
File this flight plan on PilotEdge
Remarks: TEC route CSTP31
Altitude:
(Current/Filed)
5,000ft
Speed:
(Current/Filed)
120kts
Departed: 01-Dec-19 12:21 PM
Arrived: 01-Dec-19 01:13 PM
Distance/Time
Traveled:
66nm/0:52
Distance/Time
To Go:
Arrived

Flight Plot

Page will automatically refresh every two minutes.


Map Options




Map Legend


Flown Route
Filed Route
Departure Airport
Arrival Airport
Navaid (VOR, NDB)
Fix

Horizontal Profiles

Position Reports

Time Latitude Longitude Heading Altitude Ground
Speed
01-Dec-19 12:01 33.676080 -117.870909 219 60ft 0kts
01-Dec-19 12:02 33.676080 -117.870909 219 60ft 0kts
01-Dec-19 12:03 33.675996 -117.870987 216 60ft 0kts
01-Dec-19 12:04 33.675996 -117.870987 216 60ft 0kts
01-Dec-19 12:05 33.675996 -117.870987 216 60ft 0kts
01-Dec-19 12:06 33.675996 -117.870987 216 60ft 0kts
01-Dec-19 12:07 33.675996 -117.870987 216 60ft 0kts
01-Dec-19 12:08 33.675996 -117.870987 216 60ft 0kts
01-Dec-19 12:09 33.675996 -117.870987 216 60ft 0kts
01-Dec-19 12:10 33.675996 -117.870987 216 60ft 0kts
01-Dec-19 12:11 33.675996 -117.870987 216 60ft 0kts
01-Dec-19 12:12 33.675996 -117.870987 216 60ft 0kts
01-Dec-19 12:13 33.675729 -117.871029 145 60ft 6kts
01-Dec-19 12:14 33.676715 -117.869700 33 60ft 8kts
01-Dec-19 12:15 33.679361 -117.868048 21 60ft 11kts
01-Dec-19 12:16 33.681226 -117.866459 118 60ft 0kts
01-Dec-19 12:17 33.681226 -117.866459 118 60ft 0kts
01-Dec-19 12:18 33.681226 -117.866459 118 60ft 0kts
01-Dec-19 12:19 33.680580 -117.865751 204 60ft 0kts
01-Dec-19 12:20 33.666484 -117.874574 208 396ft 90kts
01-Dec-19 12:21 33.642208 -117.880510 186 1276ft 88kts
01-Dec-19 12:22 33.618958 -117.884091 186 2154ft 79kts
01-Dec-19 12:23 33.597109 -117.888537 186 2878ft 82kts
01-Dec-19 12:24 33.581144 -117.875113 120 3578ft 76kts
01-Dec-19 12:25 33.570218 -117.853260 120 4237ft 78kts
01-Dec-19 12:26 33.559166 -117.830167 120 4843ft 80kts
01-Dec-19 12:27 33.546677 -117.803709 121 5004ft 103kts
01-Dec-19 12:28 33.531695 -117.772497 121 5000ft 109kts
01-Dec-19 12:29 33.515827 -117.741343 128 4998ft 109kts
01-Dec-19 12:30 33.494960 -117.714701 135 4999ft 109kts
01-Dec-19 12:31 33.473233 -117.689127 135 4998ft 109kts
01-Dec-19 12:32 33.451489 -117.663684 136 4998ft 110kts
01-Dec-19 12:33 33.429735 -117.638195 135 4999ft 109kts
01-Dec-19 12:34 33.408058 -117.612791 135 4999ft 109kts
01-Dec-19 12:35 33.386329 -117.587450 135 5000ft 109kts
01-Dec-19 12:36 33.364592 -117.562000 135 4999ft 109kts
01-Dec-19 12:37 33.342816 -117.536603 136 5000ft 109kts
01-Dec-19 12:38 33.321062 -117.511210 136 5008ft 109kts
01-Dec-19 12:39 33.299149 -117.485724 136 5010ft 110kts
01-Dec-19 12:40 33.277179 -117.460139 136 5008ft 110kts
01-Dec-19 12:41 33.255261 -117.434487 136 5008ft 110kts
01-Dec-19 12:42 33.230800 -117.413446 159 5008ft 110kts
01-Dec-19 12:43 33.201904 -117.401218 159 5008ft 110kts
01-Dec-19 12:44 33.173043 -117.389106 159 5008ft 110kts
01-Dec-19 12:45 33.144151 -117.376953 159 5007ft 110kts
01-Dec-19 12:46 33.115251 -117.364766 159 5012ft 110kts
01-Dec-19 12:47 33.086357 -117.352691 159 5008ft 110kts
01-Dec-19 12:48 33.057356 -117.340500 160 5012ft 111kts
01-Dec-19 12:49 33.028132 -117.328223 160 5012ft 111kts
01-Dec-19 12:50 32.999018 -117.315998 160 5015ft 111kts
01-Dec-19 12:51 32.969789 -117.303780 160 5016ft 111kts
01-Dec-19 12:52 32.940675 -117.291544 160 5017ft 111kts
01-Dec-19 12:53 32.911434 -117.279289 160 5017ft 111kts
01-Dec-19 12:54 32.882261 -117.267133 160 5020ft 111kts
01-Dec-19 12:55 32.852994 -117.254882 160 5020ft 111kts
01-Dec-19 12:56 32.832392 -117.232072 102 5018ft 113kts
01-Dec-19 12:57 32.827031 -117.194986 102 5020ft 113kts
01-Dec-19 12:58 32.821648 -117.157762 101 5002ft 114kts
01-Dec-19 12:59 32.816319 -117.120567 101 4999ft 113kts
01-Dec-19 13:00 32.810810 -117.083337 101 5000ft 114kts
01-Dec-19 13:01 32.805217 -117.046143 101 4998ft 114kts
01-Dec-19 13:03 32.781088 -117.029964 171 4188ft 109kts
01-Dec-19 13:04 32.750392 -117.024614 170 4000ft 113kts
01-Dec-19 13:05 32.719244 -117.019184 170 4000ft 113kts
01-Dec-19 13:06 32.691715 -117.016166 205 3800ft 89kts
01-Dec-19 13:07 32.695269 -117.042120 298 3800ft 95kts
01-Dec-19 13:08 32.704852 -117.071937 286 3480ft 97kts
01-Dec-19 13:09 32.711901 -117.100524 286 2860ft 85kts
01-Dec-19 13:10 32.718435 -117.127395 286 2230ft 83kts
01-Dec-19 13:11 32.724497 -117.152358 289 1343ft 79kts
01-Dec-19 13:12 32.730846 -117.178597 290 82ft 90kts
01-Dec-19 13:13 32.734713 -117.190698 48 17ft 1kts
01-Dec-19 13:14 32.734717 -117.190692 48 17ft 0kts
01-Dec-19 13:15 32.735346 -117.189229 324 18ft 3kts
01-Dec-19 13:16 32.735271 -117.189271 138 18ft 0kts
01-Dec-19 13:17 32.735271 -117.189271 138 18ft 0kts
01-Dec-19 13:18 32.735271 -117.189271 138 18ft 0kts
01-Dec-19 13:19 32.735271 -117.189271 138 18ft 0kts

Navigation Log

Ident Type
Flight plan parsing failed, navigation log unavailable